Malaysia Virtual Airlines Airport Information Service

Krabi Airport

ICAO: VTSG Country: Thailand
Latitude: 8.09985 Longitude: 98.9853
Latest Arrival : AK860 (WMKK-VTSG) Latest Departure : AK861 (VTSG-WMKK)


WX CaptureLIVE
Data provided by noaa.gov | Fetched at 05:29:36

METAR : VTSG 290500Z 34004KT 5000 RA FEW014 SCT020 OVC100 23/23 Q1010 RERA NOSIG

TAF : VTSG 241700Z 2418/2518 06006KT 9999 FEW020 TEMPO 2506/2512 06015G25KT 3000 TSRA FEW016CB SCT020 BKN100


Runway Data for VTSG
Data provided by openaviationdata.com

Runway ID Mag Var Hdg Length Elevation Surface ILS Freq ILS Id ILS Slope
14 0 140° 6922 ft 82 ft Asphalt -- -- --
32 0 320° 6922 ft 82 ft Asphalt 110.1 IKBI 3

Krabi Airport, Thailand
Use only for reference purposes



Not for navigational purposes.